createdAt,value
2019-06-08T00:01:44.362Z,15.11
2019-06-08T00:04:14.490Z,15.08
2019-06-08T00:06:44.604Z,15.05
2019-06-08T00:09:14.757Z,14.92
2019-06-08T00:11:44.837Z,14.83
2019-06-08T00:14:15.188Z,14.79
2019-06-08T00:16:45.238Z,14.70
2019-06-08T00:19:15.364Z,14.68
2019-06-08T00:21:45.415Z,14.63
2019-06-08T00:24:15.785Z,14.70
2019-06-08T00:26:45.845Z,14.65
2019-06-08T00:29:16.248Z,14.60
2019-06-08T00:31:46.416Z,14.50
2019-06-08T00:34:16.611Z,14.53
2019-06-08T00:36:46.875Z,14.40
2019-06-08T00:39:16.980Z,14.43
2019-06-08T00:41:47.047Z,14.47
2019-06-08T00:44:49.502Z,14.37
2019-06-08T00:47:20.522Z,14.34
2019-06-08T00:49:50.668Z,14.31
2019-06-08T00:52:21.094Z,14.32
2019-06-08T00:54:51.223Z,14.27
2019-06-08T00:57:21.784Z,14.18
2019-06-08T00:59:51.985Z,14.22
2019-06-08T01:02:22.544Z,14.20
2019-06-08T01:04:52.792Z,14.17
2019-06-08T01:07:24.055Z,14.17
2019-06-08T01:09:54.142Z,14.11
2019-06-08T01:12:24.618Z,14.04
2019-06-08T01:14:54.779Z,14.11
2019-06-08T01:17:25.147Z,14.04
2019-06-08T01:19:55.205Z,14.03
2019-06-08T01:22:25.588Z,14.03
2019-06-08T01:24:55.618Z,13.99
2019-06-08T01:27:26.096Z,13.94
2019-06-08T01:29:56.250Z,13.98
2019-06-08T01:32:26.453Z,13.90
2019-06-08T01:34:56.461Z,13.95
2019-06-08T01:37:27.027Z,13.89
2019-06-08T01:39:57.196Z,13.83
2019-06-08T01:42:27.724Z,13.82
2019-06-08T01:44:57.801Z,13.78
2019-06-08T01:47:28.340Z,13.71
2019-06-08T01:49:58.518Z,13.73
2019-06-08T01:52:28.898Z,13.79
2019-06-08T01:54:59.080Z,13.79
2019-06-08T01:57:29.369Z,13.75
2019-06-08T01:59:59.498Z,13.69
2019-06-08T02:02:29.960Z,13.67
2019-06-08T02:05:00.512Z,13.63
2019-06-08T02:07:30.586Z,13.55
2019-06-08T02:10:00.675Z,13.55
2019-06-08T02:12:31.179Z,13.48
2019-06-08T02:15:01.349Z,13.44
2019-06-08T02:17:31.434Z,13.41
2019-06-08T02:20:01.528Z,13.39
2019-06-08T02:22:32.964Z,13.50
2019-06-08T02:25:03.071Z,13.49
2019-06-08T02:27:33.550Z,13.46
2019-06-08T02:30:03.910Z,13.38
2019-06-08T02:32:35.603Z,13.31
2019-06-08T02:35:06.996Z,13.27
2019-06-08T02:37:38.310Z,13.25
2019-06-08T02:40:09.656Z,13.27
2019-06-08T02:42:40.289Z,13.25
2019-06-08T02:45:11.406Z,13.19
2019-06-08T02:47:41.897Z,13.21
2019-06-08T02:50:12.769Z,13.15
2019-06-08T02:52:44.355Z,13.15
2019-06-08T02:55:14.530Z,13.14
2019-06-08T02:57:46.128Z,13.13
2019-06-08T03:00:16.583Z,13.09
2019-06-08T03:02:47.770Z,13.08
2019-06-08T03:05:17.880Z,13.08
2019-06-08T03:07:50.878Z,13.08
2019-06-08T03:10:20.965Z,13.09
2019-06-08T03:12:53.355Z,13.07
2019-06-08T03:15:46.454Z,13.08
2019-06-08T03:18:16.533Z,13.03
2019-06-08T03:20:46.607Z,13.07
2019-06-08T03:23:16.714Z,13.01
2019-06-08T03:25:52.936Z,13.01
2019-06-08T03:28:18.613Z,13.07
2019-06-08T03:30:54.429Z,13.07
2019-06-08T03:33:20.493Z,13.05
2019-06-08T03:35:56.813Z,13.10
2019-06-08T03:38:22.381Z,13.07
2019-06-08T03:40:52.469Z,13.13
2019-06-08T03:43:22.553Z,13.15
2019-06-08T03:45:52.628Z,13.15
2019-06-08T03:48:22.722Z,13.13
2019-06-08T03:50:52.812Z,13.13
2019-06-08T03:53:22.921Z,13.10
2019-06-08T03:55:53.007Z,13.12
2019-06-08T03:58:23.106Z,13.23
2019-06-08T04:00:53.228Z,13.23
2019-06-08T04:03:23.338Z,13.26
2019-06-08T04:05:53.399Z,13.29
2019-06-08T04:09:11.331Z,13.24
2019-06-08T04:11:39.935Z,13.24
2019-06-08T04:14:10.110Z,13.29
2019-06-08T04:16:42.359Z,13.27
2019-06-08T04:19:12.130Z,13.29
2019-06-08T04:21:42.248Z,13.33
2019-06-08T04:24:12.347Z,13.30
2019-06-08T04:26:43.398Z,13.29
2019-06-08T04:29:14.252Z,13.36
2019-06-08T04:31:45.943Z,13.39
2019-06-08T04:34:16.121Z,13.34
2019-06-08T04:36:48.071Z,13.28
2019-06-08T04:39:18.105Z,13.25
2019-06-08T04:41:50.938Z,13.23
2019-06-08T04:44:21.135Z,13.15
2019-06-08T04:46:51.196Z,13.09
2019-06-08T04:49:21.284Z,13.10
2019-06-08T04:51:51.360Z,13.08
2019-06-08T04:54:21.455Z,13.14
2019-06-08T04:56:51.565Z,13.33
2019-06-08T04:59:21.642Z,13.44
2019-06-08T05:01:51.725Z,13.59
2019-06-08T05:04:21.838Z,13.76
2019-06-08T05:06:51.887Z,15.18
2019-06-08T05:09:21.992Z,16.23
2019-06-08T05:11:52.540Z,15.24
2019-06-08T05:14:22.610Z,14.37
2019-06-08T05:16:52.678Z,14.47
2019-06-08T05:19:23.376Z,14.13
2019-06-08T05:21:53.479Z,14.22
2019-06-08T05:24:23.594Z,14.25
2019-06-08T05:26:53.694Z,14.15
2019-06-08T05:29:23.745Z,14.38
2019-06-08T05:31:53.824Z,16.54
2019-06-08T05:34:23.913Z,18.05
2019-06-08T05:36:54.209Z,18.56
2019-06-08T05:39:24.267Z,17.63
2019-06-08T05:41:54.376Z,16.99
2019-06-08T05:44:24.445Z,17.16
2019-06-08T05:46:54.543Z,16.23
2019-06-08T05:49:24.644Z,15.99
2019-06-08T05:51:54.730Z,15.48
2019-06-08T05:54:24.820Z,15.29
2019-06-08T05:56:54.929Z,15.38
2019-06-08T05:59:24.994Z,15.36
2019-06-08T06:01:55.086Z,15.25
2019-06-08T06:04:25.168Z,15.04
2019-06-08T06:06:55.482Z,15.05
2019-06-08T06:09:25.566Z,15.04
2019-06-08T06:11:55.662Z,14.81
2019-06-08T06:14:26.126Z,14.70
2019-06-08T06:16:56.308Z,14.65
2019-06-08T06:19:27.241Z,14.70
2019-06-08T06:21:57.357Z,14.78
2019-06-08T06:24:27.456Z,15.13
2019-06-08T06:26:57.570Z,15.42
2019-06-08T06:29:27.809Z,15.55
2019-06-08T06:31:57.941Z,15.16
2019-06-08T06:34:28.063Z,15.03
2019-06-08T06:36:58.273Z,14.86
2019-06-08T06:39:28.333Z,15.51
2019-06-08T06:41:58.441Z,15.75
2019-06-08T06:44:28.537Z,15.75
2019-06-08T06:46:58.650Z,15.69
2019-06-08T06:49:28.727Z,16.19
2019-06-08T06:51:59.177Z,16.66
2019-06-08T06:54:29.323Z,16.04
2019-06-08T06:56:59.427Z,16.20
2019-06-08T06:59:29.505Z,15.93
2019-06-08T07:01:59.732Z,15.73
2019-06-08T07:04:29.944Z,16.06
2019-06-08T07:07:00.798Z,16.88
2019-06-08T07:09:30.970Z,17.56
2019-06-08T07:12:01.251Z,18.54
2019-06-08T07:14:32.059Z,19.09
2019-06-08T07:17:02.855Z,18.86
2019-06-08T07:19:33.291Z,18.98
2019-06-08T07:22:03.627Z,18.53
2019-06-08T07:24:34.381Z,18.19
2019-06-08T07:27:07.361Z,18.47
2019-06-08T07:29:36.559Z,19.26
2019-06-08T07:32:06.821Z,19.21
2019-06-08T07:34:37.121Z,19.49
2019-06-08T07:37:07.525Z,19.54
2019-06-08T07:39:38.382Z,19.08
2019-06-08T07:42:08.809Z,19.80
2019-06-08T07:44:39.223Z,19.28
2019-06-08T07:47:09.449Z,19.17
2019-06-08T07:49:40.537Z,19.52
2019-06-08T07:52:11.105Z,18.88
2019-06-08T07:54:42.061Z,18.55
2019-06-08T07:57:12.250Z,18.66
2019-06-08T07:59:42.378Z,17.74
2019-06-08T08:02:12.629Z,17.43
2019-06-08T08:04:42.995Z,17.01
2019-06-08T08:07:13.252Z,16.97
2019-06-08T08:09:43.489Z,16.80
2019-06-08T08:12:13.584Z,16.70
2019-06-08T08:14:43.693Z,16.72
2019-06-08T08:17:13.800Z,16.91
2019-06-08T08:19:43.983Z,16.92
2019-06-08T08:22:22.989Z,16.85
2019-06-08T08:24:50.389Z,16.75
2019-06-08T08:27:18.076Z,16.93
2019-06-08T08:29:51.716Z,17.29
2019-06-08T08:32:21.922Z,17.34
2019-06-08T08:34:52.237Z,17.26
2019-06-08T08:37:22.682Z,16.69
2019-06-08T08:39:53.535Z,16.55
2019-06-08T08:42:23.859Z,16.44
2019-06-08T08:44:54.220Z,16.24
2019-06-08T08:47:24.403Z,16.17
2019-06-08T08:49:54.525Z,16.41
2019-06-08T08:52:34.490Z,16.41
2019-06-08T08:54:59.132Z,16.18
2019-06-08T08:57:28.943Z,16.04
2019-06-08T09:00:04.334Z,15.97
2019-06-08T09:02:31.190Z,16.09
2019-06-08T09:05:03.342Z,16.05
2019-06-08T09:07:33.221Z,16.28
2019-06-08T09:10:04.057Z,16.45
2019-06-08T09:12:37.063Z,16.64
2019-06-08T09:15:08.606Z,16.70
2019-06-08T09:17:38.926Z,16.55
2019-06-08T09:20:15.452Z,16.37
2019-06-08T09:22:52.523Z,16.29
2019-06-08T09:25:13.703Z,16.24
2019-06-08T09:27:43.997Z,16.38
2019-06-08T09:30:14.065Z,16.33
2019-06-08T09:32:44.259Z,16.24
2019-06-08T09:35:15.217Z,16.47
2019-06-08T09:37:48.404Z,16.52
2019-06-08T09:40:17.859Z,16.67
2019-06-08T09:42:50.843Z,16.49
2019-06-08T09:45:20.504Z,16.34
2019-06-08T09:47:50.953Z,16.37
2019-06-08T09:50:21.397Z,16.33
2019-06-08T09:53:06.512Z,16.41
2019-06-08T09:55:24.322Z,16.36
2019-06-08T09:57:59.005Z,16.42
2019-06-08T10:00:29.148Z,16.46
2019-06-08T10:03:12.630Z,16.65
2019-06-08T10:05:42.874Z,16.94
2019-06-08T10:08:13.001Z,16.96
2019-06-08T10:10:43.125Z,16.87
2019-06-08T10:13:13.366Z,16.72
2019-06-08T10:15:43.519Z,16.60
2019-06-08T10:18:13.693Z,16.44
2019-06-08T10:20:43.781Z,16.32
2019-06-08T10:23:30.302Z,16.38
2019-06-08T10:25:47.979Z,16.15
2019-06-08T10:28:21.438Z,16.05
2019-06-08T10:30:49.583Z,16.26
2019-06-08T10:33:19.777Z,16.77
2019-06-08T10:35:49.861Z,17.19
2019-06-08T10:38:20.167Z,17.39
2019-06-08T10:41:12.868Z,17.42
2019-06-08T10:43:35.272Z,17.17
2019-06-08T10:46:14.030Z,16.90
2019-06-08T10:48:38.039Z,16.71
2019-06-08T10:51:11.238Z,16.88
2019-06-08T10:53:49.226Z,17.22
2019-06-08T10:56:12.596Z,17.24
2019-06-08T10:58:42.922Z,17.02
2019-06-08T11:01:13.606Z,17.02
2019-06-08T11:03:43.925Z,16.84
2019-06-08T11:06:14.041Z,16.67
2019-06-08T11:08:44.122Z,16.63
2019-06-08T11:11:14.237Z,16.47
2019-06-08T11:13:44.306Z,16.64
2019-06-08T11:16:14.427Z,16.44
2019-06-08T11:18:44.454Z,16.29
2019-06-08T11:21:14.544Z,16.45
2019-06-08T11:23:44.637Z,16.52
2019-06-08T11:26:22.636Z,16.57
2019-06-08T11:28:48.274Z,16.59
2019-06-08T11:31:19.854Z,16.80
2019-06-08T11:33:50.141Z,16.92
2019-06-08T11:36:20.335Z,17.02
2019-06-08T11:38:52.139Z,16.69
2019-06-08T11:41:22.929Z,16.83
2019-06-08T11:43:53.295Z,16.92
2019-06-08T11:46:24.074Z,16.77
2019-06-08T11:48:54.179Z,17.12
2019-06-08T11:51:24.307Z,17.29
2019-06-08T11:53:54.413Z,17.62
2019-06-08T11:56:25.125Z,17.56
2019-06-08T11:58:57.932Z,17.92
2019-06-08T12:01:28.043Z,17.96
2019-06-08T12:04:01.569Z,17.70
2019-06-08T12:06:31.859Z,17.37
2019-06-08T12:09:02.680Z,17.73
2019-06-08T12:11:32.905Z,18.34
2019-06-08T12:14:03.056Z,18.24
2019-06-08T12:16:33.937Z,18.98
2019-06-08T12:19:06.780Z,18.44
2019-06-08T12:21:37.489Z,17.70
2019-06-08T12:24:08.447Z,17.38
2019-06-08T12:26:38.986Z,16.93
2019-06-08T12:29:12.879Z,17.34
2019-06-08T12:31:41.512Z,17.27
2019-06-08T12:34:11.662Z,17.44
2019-06-08T12:36:41.751Z,17.28
2019-06-08T12:39:12.068Z,17.50
2019-06-08T12:41:42.152Z,17.79
2019-06-08T12:44:14.997Z,18.18
2019-06-08T12:46:44.138Z,17.87
2019-06-08T12:49:14.697Z,18.17
2019-06-08T12:51:45.857Z,18.11
2019-06-08T12:54:18.465Z,18.43
2019-06-08T12:56:48.057Z,18.15
2019-06-08T12:59:21.503Z,18.49
2019-06-08T13:01:50.104Z,18.85
2019-06-08T13:04:23.506Z,18.12
2019-06-08T13:06:52.080Z,18.48
2019-06-08T13:09:22.318Z,18.30
2019-06-08T13:11:52.524Z,18.54
2019-06-08T13:14:22.617Z,19.57
2019-06-08T13:16:53.371Z,19.40
2019-06-08T13:19:23.506Z,19.07
2019-06-08T13:21:53.580Z,19.13
2019-06-08T13:24:23.695Z,18.92
2019-06-08T13:26:54.111Z,18.22
2019-06-08T13:29:24.747Z,17.84
2019-06-08T13:31:54.862Z,18.33
2019-06-08T13:34:25.424Z,18.31
2019-06-08T13:36:55.555Z,18.56
2019-06-08T13:39:27.879Z,18.62
2019-06-08T13:41:58.107Z,18.61
2019-06-08T13:44:28.179Z,18.55
2019-06-08T13:46:58.397Z,18.07
2019-06-08T13:49:30.652Z,17.82
2019-06-08T13:52:00.893Z,17.81
2019-06-08T13:54:31.427Z,17.70
2019-06-08T13:57:01.597Z,17.48
2019-06-08T13:59:31.714Z,17.35
2019-06-08T14:02:02.537Z,17.25
2019-06-08T14:04:32.818Z,17.18
2019-06-08T14:07:03.792Z,17.19
2019-06-08T14:09:34.036Z,17.16
2019-06-08T14:12:04.205Z,17.17
2019-06-08T14:14:34.291Z,17.10
2019-06-08T14:17:04.436Z,17.15
2019-06-08T14:19:34.543Z,17.32
2019-06-08T14:22:04.638Z,17.57
2019-06-08T14:24:34.948Z,17.80
2019-06-08T14:27:08.062Z,17.97
2019-06-08T14:29:37.580Z,17.99
2019-06-08T14:32:08.029Z,17.93
2019-06-08T14:34:38.856Z,18.01
2019-06-08T14:37:09.170Z,17.84
2019-06-08T14:39:39.519Z,17.78
2019-06-08T14:42:09.650Z,17.84
2019-06-08T14:44:39.760Z,17.70
2019-06-08T14:47:15.896Z,17.78
2019-06-08T14:49:48.743Z,17.81
2019-06-08T14:52:20.672Z,18.01
2019-06-08T14:54:51.238Z,18.24
2019-06-08T14:57:21.588Z,18.27
2019-06-08T14:59:51.780Z,18.49
2019-06-08T15:02:21.934Z,18.91
2019-06-08T15:04:52.172Z,18.64
2019-06-08T15:07:24.615Z,19.01
2019-06-08T15:09:55.091Z,20.10
2019-06-08T15:12:25.582Z,19.65
2019-06-08T15:14:58.029Z,19.29
2019-06-08T15:17:30.290Z,19.03
2019-06-08T15:20:00.108Z,18.69
2019-06-08T15:22:31.718Z,18.49
2019-06-08T15:25:02.241Z,18.38
2019-06-08T15:27:33.381Z,18.34
2019-06-08T15:30:03.870Z,18.30
2019-06-08T15:32:35.732Z,18.49
2019-06-08T15:35:08.130Z,19.32
2019-06-08T15:37:40.869Z,19.46
2019-06-08T15:40:10.345Z,20.01
2019-06-08T15:42:40.481Z,18.89
2019-06-08T15:45:11.233Z,18.69
2019-06-08T15:47:41.516Z,18.45
2019-06-08T15:50:12.324Z,18.67
2019-06-08T15:52:42.786Z,18.87
2019-06-08T15:55:12.915Z,18.95
2019-06-08T15:57:43.010Z,18.72
2019-06-08T16:00:13.626Z,18.40
2019-06-08T16:02:43.781Z,18.11
2019-06-08T16:05:14.012Z,18.13
2019-06-08T16:07:44.189Z,18.19
2019-06-08T16:10:15.136Z,18.45
2019-06-08T16:12:45.278Z,18.29
2019-06-08T16:15:15.613Z,18.18
2019-06-08T16:17:45.802Z,17.96
2019-06-08T16:20:16.066Z,17.81
2019-06-08T16:22:46.332Z,17.80
2019-06-08T16:25:16.718Z,17.82
2019-06-08T16:27:49.856Z,17.79
2019-06-08T16:30:20.203Z,17.92
2019-06-08T16:32:50.716Z,18.14
2019-06-08T16:35:21.020Z,17.98
2019-06-08T16:37:51.121Z,17.97
2019-06-08T16:40:21.238Z,18.08
2019-06-08T16:42:51.533Z,17.90
2019-06-08T16:45:21.796Z,17.85
2019-06-08T16:47:51.898Z,17.62
2019-06-08T16:50:24.727Z,17.54
2019-06-08T16:52:54.777Z,17.44
2019-06-08T16:55:25.185Z,17.28
2019-06-08T16:57:55.797Z,17.24
2019-06-08T17:00:31.150Z,17.18
2019-06-08T17:02:58.215Z,17.22
2019-06-08T17:05:28.903Z,17.85
2019-06-08T17:07:59.306Z,17.53
2019-06-08T17:10:30.490Z,17.43
2019-06-08T17:13:00.630Z,17.45
2019-06-08T17:15:31.937Z,17.58
2019-06-08T17:18:02.350Z,17.49
2019-06-08T17:20:34.073Z,17.42
2019-06-08T17:23:04.275Z,17.47
2019-06-08T17:25:34.552Z,17.15
2019-06-08T17:28:04.632Z,17.35
2019-06-08T17:30:35.783Z,17.25
2019-06-08T17:33:07.136Z,16.85
2019-06-08T17:35:37.625Z,16.63
2019-06-08T17:38:07.902Z,16.45
2019-06-08T17:40:38.367Z,16.27
2019-06-08T17:43:08.517Z,16.23
2019-06-08T17:45:38.720Z,16.24
2019-06-08T17:48:08.923Z,16.20
2019-06-08T17:50:39.074Z,16.24
2019-06-08T17:53:09.674Z,16.24
2019-06-08T17:55:41.732Z,16.22
2019-06-08T17:58:12.061Z,16.21
2019-06-08T18:00:43.780Z,16.27
2019-06-08T18:03:14.098Z,16.28
2019-06-08T18:05:45.849Z,16.21
2019-06-08T18:08:17.551Z,16.14
2019-06-08T18:10:49.022Z,16.05
2019-06-08T18:13:20.131Z,15.84
2019-06-08T18:15:51.245Z,15.87
2019-06-08T18:18:22.179Z,15.89
2019-06-08T18:20:53.181Z,15.92
2019-06-08T18:23:24.576Z,15.90
2019-06-08T18:25:55.394Z,15.90
2019-06-08T18:28:28.116Z,15.84
2019-06-08T18:30:59.510Z,15.80
2019-06-08T18:33:30.234Z,15.72
2019-06-08T18:36:00.496Z,15.61
2019-06-08T18:38:31.501Z,15.44
2019-06-08T18:41:02.924Z,15.23
2019-06-08T18:43:33.515Z,15.07
2019-06-08T18:46:06.987Z,14.89
2019-06-08T18:48:39.764Z,14.70
2019-06-08T18:51:09.616Z,14.50
2019-06-08T18:53:55.787Z,14.39
2019-06-08T18:56:11.797Z,14.33
2019-06-08T18:58:42.212Z,14.24
2019-06-08T19:01:12.434Z,14.32
2019-06-08T19:03:46.033Z,14.27
2019-06-08T19:06:15.175Z,14.19
2019-06-08T19:08:49.204Z,14.11
2019-06-08T19:11:19.281Z,14.14
2019-06-08T19:13:52.184Z,14.20
2019-06-08T19:16:22.741Z,14.10
2019-06-08T19:18:53.444Z,14.15
2019-06-08T19:21:24.447Z,14.13
2019-06-08T19:23:54.783Z,14.10
2019-06-08T19:26:28.006Z,14.05
2019-06-08T19:28:58.228Z,14.02
2019-06-08T19:31:29.792Z,13.95
2019-06-08T19:34:00.752Z,13.85
2019-06-08T19:36:32.311Z,13.77
2019-06-08T19:39:03.827Z,13.71
2019-06-08T19:41:34.120Z,13.67
2019-06-08T19:44:07.411Z,13.60
2019-06-08T19:46:38.226Z,13.49
2019-06-08T19:49:08.556Z,13.46
2019-06-08T19:51:40.276Z,13.38
2019-06-08T19:54:12.850Z,13.31
2019-06-08T19:56:45.149Z,13.34
2019-06-08T19:59:18.284Z,13.30
2019-06-08T20:01:56.333Z,13.27
2019-06-08T20:04:27.568Z,13.24
2019-06-08T20:07:00.611Z,13.20
2019-06-08T20:09:32.099Z,13.15
2019-06-08T20:12:03.527Z,13.18
2019-06-08T20:14:37.278Z,13.16
2019-06-08T20:17:08.218Z,13.21
2019-06-08T20:19:40.658Z,13.24
2019-06-08T20:22:12.243Z,13.34
2019-06-08T20:24:44.078Z,13.38
2019-06-08T20:27:17.226Z,13.32
2019-06-08T20:29:50.750Z,13.26
2019-06-08T20:32:20.729Z,13.17
2019-06-08T20:35:10.774Z,13.12
2019-06-08T20:37:43.557Z,13.04
2019-06-08T20:40:14.996Z,13.06
2019-06-08T20:42:49.058Z,13.02
2019-06-08T20:45:19.169Z,12.96
2019-06-08T20:47:51.980Z,12.84
2019-06-08T20:50:22.992Z,12.77
2019-06-08T20:52:53.876Z,12.67
2019-06-08T20:55:24.349Z,12.59
2019-06-08T20:57:57.481Z,12.64
2019-06-08T21:00:27.683Z,12.62
2019-06-08T21:03:02.788Z,12.88
2019-06-08T21:05:31.735Z,12.97
2019-06-08T21:08:02.541Z,12.98
2019-06-08T21:10:32.782Z,13.02
2019-06-08T21:13:03.516Z,13.03
2019-06-08T21:15:34.561Z,13.09
2019-06-08T21:18:07.802Z,13.18
2019-06-08T21:20:38.677Z,13.18
2019-06-08T21:23:09.838Z,13.32
2019-06-08T21:25:40.062Z,13.30
2019-06-08T21:28:10.260Z,13.43
2019-06-08T21:30:40.401Z,13.51
2019-06-08T21:33:10.551Z,13.41
2019-06-08T21:35:41.511Z,13.43
2019-06-08T21:38:23.219Z,13.36
2019-06-08T21:40:43.576Z,13.23
2019-06-08T21:43:13.850Z,13.28
2019-06-08T21:45:44.767Z,13.28
2019-06-08T21:48:15.438Z,13.51
2019-06-08T21:50:49.023Z,13.53
2019-06-08T21:53:18.155Z,13.48
2019-06-08T21:55:49.580Z,13.51
2019-06-08T21:58:20.418Z,13.47
2019-06-08T22:00:52.712Z,13.48
2019-06-08T22:03:23.061Z,13.42
2019-06-08T22:05:54.135Z,13.43
2019-06-08T22:08:25.227Z,13.37
2019-06-08T22:10:59.035Z,13.43
2019-06-08T22:13:28.549Z,13.40
2019-06-08T22:16:02.097Z,13.44
2019-06-08T22:18:30.654Z,13.44
2019-06-08T22:21:01.297Z,13.50
2019-06-08T22:23:31.599Z,13.47
2019-06-08T22:26:03.652Z,13.44
2019-06-08T22:28:34.913Z,13.48
2019-06-08T22:31:07.760Z,13.41
2019-06-08T22:33:37.999Z,13.38
2019-06-08T22:36:09.231Z,13.37
2019-06-08T22:38:39.678Z,13.50
2019-06-08T22:41:10.456Z,13.40
2019-06-08T22:43:40.658Z,13.40
2019-06-08T22:46:10.825Z,13.37
2019-06-08T22:48:41.254Z,13.40
2019-06-08T22:51:11.522Z,13.30
2019-06-08T22:53:42.203Z,13.33
2019-06-08T22:56:13.141Z,13.25
2019-06-08T22:58:43.264Z,13.25
2019-06-08T23:01:13.839Z,13.24
2019-06-08T23:03:43.965Z,13.23
2019-06-08T23:06:14.101Z,13.16
2019-06-08T23:08:44.230Z,13.16
2019-06-08T23:11:14.327Z,13.12
2019-06-08T23:13:44.507Z,13.03
2019-06-08T23:16:14.603Z,12.97
2019-06-08T23:18:44.776Z,12.99
2019-06-08T23:21:14.888Z,13.06
2019-06-08T23:23:47.478Z,12.99
2019-06-08T23:26:18.357Z,12.95
2019-06-08T23:28:48.610Z,12.89
2019-06-08T23:31:24.946Z,12.91
2019-06-08T23:33:50.537Z,12.97
2019-06-08T23:36:48.332Z,12.90
2019-06-08T23:38:52.441Z,12.94
2019-06-08T23:41:22.561Z,12.90
2019-06-08T23:43:52.678Z,12.98
2019-06-08T23:46:22.800Z,12.93
2019-06-08T23:48:52.935Z,12.86
2019-06-08T23:51:23.068Z,12.94
2019-06-08T23:53:53.178Z,12.93
2019-06-08T23:56:23.266Z,12.93
2019-06-08T23:58:53.363Z,12.87
